createdAt,value
2019-04-11T00:00:44.439Z,15.53
2019-04-11T00:03:13.404Z,21.17
2019-04-11T00:05:43.260Z,22.00
2019-04-11T00:08:12.289Z,19.32
2019-04-11T00:10:41.660Z,18.65
2019-04-11T00:13:19.753Z,18.30
2019-04-11T00:15:40.937Z,19.30
2019-04-11T00:18:10.311Z,17.80
2019-04-11T00:20:40.206Z,13.88
2019-04-11T00:23:10.146Z,19.37
2019-04-11T00:25:39.898Z,16.15
2019-04-11T00:28:09.726Z,16.57
2019-04-11T00:30:39.905Z,16.73
2019-04-11T00:33:09.828Z,17.48
2019-04-11T00:35:39.765Z,18.27
2019-04-11T00:38:09.822Z,18.23
2019-04-11T00:40:39.582Z,17.55
2019-04-11T00:43:09.420Z,22.42
2019-04-11T00:45:38.534Z,23.90
2019-04-11T00:48:07.351Z,20.82
2019-04-11T00:50:37.124Z,24.25
2019-04-11T00:53:06.074Z,22.98
2019-04-11T00:55:35.642Z,23.40
2019-04-11T00:58:05.573Z,23.70
2019-04-11T01:00:35.531Z,18.40
2019-04-11T01:03:07.869Z,25.12
2019-04-11T01:05:37.377Z,27.13
2019-04-11T01:08:07.266Z,28.52
2019-04-11T01:10:36.255Z,28.80
2019-04-11T01:13:05.182Z,18.32
2019-04-11T01:15:38.636Z,22.25
2019-04-11T01:18:07.621Z,19.40
2019-04-11T01:20:37.638Z,20.43
2019-04-11T01:23:06.889Z,22.95
2019-04-11T01:25:36.869Z,18.05
2019-04-11T01:28:06.701Z,23.18
2019-04-11T01:30:47.522Z,21.00
2019-04-11T01:33:16.344Z,20.00
2019-04-11T01:35:45.738Z,21.93
2019-04-11T01:38:14.997Z,26.27
2019-04-11T01:40:43.791Z,29.07
2019-04-11T01:43:13.489Z,24.12
2019-04-11T01:45:43.398Z,20.45
2019-04-11T01:48:19.665Z,25.45
2019-04-11T01:50:50.243Z,21.20
2019-04-11T01:53:19.240Z,26.62
2019-04-11T01:55:48.357Z,26.12
2019-04-11T01:58:18.286Z,24.05
2019-04-11T02:00:48.902Z,27.13
2019-04-11T02:03:19.425Z,22.02
2019-04-11T02:05:49.409Z,27.67
2019-04-11T02:08:19.505Z,27.35
2019-04-11T02:10:48.768Z,28.87
2019-04-11T02:13:17.713Z,23.18
2019-04-11T02:15:46.568Z,21.10
2019-04-11T02:18:15.314Z,23.73
2019-04-11T02:20:45.184Z,24.35
2019-04-11T02:23:15.791Z,21.17
2019-04-11T02:25:58.413Z,19.90
2019-04-11T02:28:27.294Z,19.57
2019-04-11T02:30:57.468Z,22.07
2019-04-11T02:33:27.055Z,20.60
2019-04-11T02:35:56.676Z,15.40
2019-04-11T02:38:25.977Z,13.70
2019-04-11T02:40:55.280Z,13.28
2019-04-11T02:43:25.913Z,13.38
2019-04-11T02:46:08.935Z,14.38
2019-04-11T02:48:26.887Z,13.90
2019-04-11T02:50:56.505Z,15.65
2019-04-11T02:53:28.081Z,13.83
2019-04-11T02:55:58.270Z,16.12
2019-04-11T02:58:27.952Z,20.52
2019-04-11T03:01:00.876Z,13.90
2019-04-11T03:03:29.767Z,13.65
2019-04-11T03:06:00.022Z,17.40
2019-04-11T03:08:31.869Z,17.02
2019-04-11T03:11:01.676Z,19.75
2019-04-11T03:13:30.531Z,20.35
2019-04-11T03:16:16.827Z,16.30
2019-04-11T03:18:47.638Z,15.75
2019-04-11T03:21:06.080Z,14.23
2019-04-11T03:23:31.194Z,16.17
2019-04-11T03:26:00.635Z,13.18
2019-04-11T03:28:31.242Z,13.45
2019-04-11T03:31:33.329Z,13.72
2019-04-11T03:37:03.291Z,13.00
2019-04-11T03:38:57.067Z,11.83
2019-04-11T03:41:21.698Z,12.05
2019-04-11T03:43:41.948Z,11.83
2019-04-11T03:46:28.350Z,12.50
2019-04-11T03:48:49.780Z,11.75
2019-04-11T03:51:05.127Z,10.55
2019-04-11T03:53:36.463Z,11.45
2019-04-11T03:56:05.156Z,12.53
2019-04-11T03:58:34.252Z,10.18
2019-04-11T04:01:05.868Z,10.68
2019-04-11T04:03:34.217Z,9.30
2019-04-11T04:06:06.826Z,9.00
2019-04-11T04:08:38.560Z,9.88
2019-04-11T04:11:12.347Z,10.03
2019-04-11T04:13:45.384Z,9.35
2019-04-11T04:16:38.584Z,7.95
2019-04-11T04:19:20.531Z,12.28
2019-04-11T04:22:05.049Z,9.88
2019-04-11T04:24:40.516Z,14.13
2019-04-11T04:27:09.976Z,11.88
2019-04-11T04:29:39.066Z,14.50
2019-04-11T04:32:09.548Z,14.00
2019-04-11T04:34:40.023Z,8.48
2019-04-11T04:37:09.163Z,9.78
2019-04-11T04:39:39.783Z,9.68
2019-04-11T04:42:19.815Z,10.30
2019-04-11T04:44:40.380Z,11.57
2019-04-11T04:47:21.184Z,9.58
2019-04-11T04:49:41.030Z,9.38
2019-04-11T04:52:12.370Z,10.35
2019-04-11T04:54:41.087Z,14.23
2019-04-11T04:57:12.941Z,8.85
2019-04-11T04:59:42.376Z,9.93
2019-04-11T05:02:12.650Z,10.30
2019-04-11T05:04:41.465Z,10.65
2019-04-11T05:07:11.617Z,9.50
2019-04-11T05:09:42.501Z,10.43
2019-04-11T05:12:11.953Z,7.08
2019-04-11T05:14:40.848Z,12.40
2019-04-11T05:17:10.736Z,10.60
2019-04-11T05:19:40.464Z,9.80
2019-04-11T05:22:10.492Z,12.00
2019-04-11T05:24:41.064Z,11.22
2019-04-11T05:27:10.436Z,9.63
2019-04-11T05:29:39.731Z,10.98
2019-04-11T05:32:09.381Z,13.90
2019-04-11T05:34:39.334Z,11.00
2019-04-11T05:37:08.998Z,13.28
2019-04-11T05:39:38.056Z,9.93
2019-04-11T05:42:07.167Z,9.98
2019-04-11T05:44:38.193Z,7.95
2019-04-11T05:47:06.933Z,10.78
2019-04-11T05:49:44.796Z,10.70
2019-04-11T05:52:14.054Z,9.58
2019-04-11T05:54:48.888Z,8.23
2019-04-11T05:57:15.883Z,7.60
2019-04-11T05:59:50.975Z,7.03
2019-04-11T06:02:25.117Z,8.48
2019-04-11T06:05:11.559Z,7.15
2019-04-11T06:07:57.268Z,12.40
2019-04-11T06:10:28.951Z,5.97
2019-04-11T06:13:16.454Z,6.33
2019-04-11T06:15:51.273Z,6.85
2019-04-11T06:18:37.398Z,6.17
2019-04-11T06:21:22.780Z,5.12
2019-04-11T06:24:09.928Z,7.15
2019-04-11T06:26:43.047Z,5.55
2019-04-11T06:29:20.976Z,4.67
2019-04-11T06:31:45.632Z,3.95
2019-04-11T06:34:15.461Z,4.30
2019-04-11T06:36:46.896Z,4.65
2019-04-11T06:39:19.094Z,5.17
2019-04-11T06:41:52.221Z,5.58
2019-04-11T06:44:26.269Z,3.83
2019-04-11T06:47:12.460Z,5.75
2019-04-11T06:49:46.684Z,3.55
2019-04-11T06:52:16.818Z,2.80
2019-04-11T06:54:47.545Z,4.03
2019-04-11T06:57:23.689Z,3.90
2019-04-11T06:59:52.614Z,3.27
2019-04-11T07:02:24.173Z,4.28
2019-04-11T07:04:57.051Z,4.15
2019-04-11T07:10:01.946Z,5.42
2019-04-11T07:12:33.015Z,4.37
2019-04-11T07:15:06.623Z,4.25
2019-04-11T07:17:53.164Z,4.62
2019-04-11T07:20:38.621Z,4.50
2019-04-11T07:23:24.904Z,4.28
2019-04-11T07:25:58.128Z,3.95
2019-04-11T07:28:41.482Z,3.80
2019-04-11T07:31:30.032Z,8.95
2019-04-11T07:34:10.534Z,4.40
2019-04-11T07:36:57.940Z,3.05
2019-04-11T07:39:28.922Z,3.58
2019-04-11T07:42:00.337Z,5.65
2019-04-11T07:44:32.157Z,2.27
2019-04-11T07:47:17.320Z,8.15
2019-04-11T07:49:46.643Z,5.60
2019-04-11T07:52:16.168Z,5.20
2019-04-11T07:54:45.605Z,2.77
2019-04-11T07:57:22.643Z,5.28
2019-04-11T08:00:00.519Z,2.42
2019-04-11T08:02:43.380Z,1.92
2019-04-11T08:05:19.288Z,5.20
2019-04-11T08:07:49.890Z,8.15
2019-04-11T08:10:22.968Z,3.60
2019-04-11T08:12:52.165Z,3.67
2019-04-11T08:15:23.703Z,4.03
2019-04-11T08:17:52.581Z,3.42
2019-04-11T08:20:41.575Z,1.85
2019-04-11T08:23:23.457Z,3.20
2019-04-11T08:25:54.082Z,5.78
2019-04-11T08:28:22.831Z,4.97
2019-04-11T08:31:03.407Z,11.08
2019-04-11T08:33:32.989Z,3.85
2019-04-11T08:36:07.306Z,5.95
2019-04-11T08:38:36.411Z,5.12
2019-04-11T08:41:07.328Z,5.67
2019-04-11T08:43:37.587Z,4.97
2019-04-11T08:46:13.523Z,4.78
2019-04-11T08:48:59.437Z,4.37
2019-04-11T08:51:33.642Z,3.22
2019-04-11T08:54:10.232Z,1.85
2019-04-11T08:56:40.631Z,3.42
2019-04-11T08:59:35.809Z,3.27
2019-04-11T09:02:06.661Z,2.25
2019-04-11T09:04:38.388Z,2.77
2019-04-11T09:07:07.824Z,2.45
2019-04-11T09:09:55.575Z,4.75
2019-04-11T09:12:24.646Z,2.22
2019-04-11T09:15:13.461Z,2.00
2019-04-11T09:17:57.828Z,2.95
2019-04-11T09:22:53.861Z,2.52
2019-04-11T09:25:40.383Z,2.65
2019-04-11T09:28:17.527Z,1.77
2019-04-11T09:30:57.189Z,4.08
2019-04-11T09:33:44.818Z,1.75
2019-04-11T09:36:33.724Z,2.17
2019-04-11T09:39:19.299Z,4.72
2019-04-11T09:41:56.538Z,1.80
2019-04-11T09:44:44.726Z,6.97
2019-04-11T09:47:32.612Z,4.40
2019-04-11T09:50:06.298Z,9.20
2019-04-11T09:52:49.477Z,2.10
2019-04-11T09:55:37.937Z,2.05
2019-04-11T09:58:08.959Z,1.90
2019-04-11T10:00:59.845Z,2.40
2019-04-11T10:03:30.428Z,2.42
2019-04-11T10:06:03.516Z,2.20
2019-04-11T10:08:39.782Z,1.95
2019-04-11T10:11:10.373Z,2.35
2019-04-11T10:13:55.648Z,2.40
2019-04-11T10:16:26.333Z,2.17
2019-04-11T10:19:13.844Z,1.80
2019-04-11T10:21:50.562Z,2.27
2019-04-11T10:24:30.520Z,3.62
2019-04-11T10:27:01.051Z,2.10
2019-04-11T10:29:33.014Z,1.80
2019-04-11T10:32:05.046Z,1.95
2019-04-11T10:34:41.783Z,3.52
2019-04-11T10:37:12.209Z,2.27
2019-04-11T10:39:49.209Z,1.40
2019-04-11T10:42:18.186Z,2.15
2019-04-11T10:45:04.692Z,2.00
2019-04-11T10:47:35.261Z,2.20
2019-04-11T10:50:07.419Z,3.10
2019-04-11T10:52:44.682Z,1.95
2019-04-11T10:55:21.853Z,1.72
2019-04-11T10:58:04.765Z,1.32
2019-04-11T11:00:41.397Z,1.65
2019-04-11T11:03:24.389Z,4.33
2019-04-11T11:05:57.759Z,2.27
2019-04-11T11:08:34.342Z,1.30
2019-04-11T11:11:05.795Z,4.40
2019-04-11T11:13:54.503Z,1.80
2019-04-11T11:16:27.876Z,3.42
2019-04-11T11:19:39.070Z,1.47
2019-04-11T11:21:45.098Z,1.40
2019-04-11T11:24:21.932Z,1.45
2019-04-11T11:26:54.520Z,1.70
2019-04-11T11:29:32.507Z,2.33
2019-04-11T11:32:03.187Z,1.80
2019-04-11T11:34:36.738Z,1.27
2019-04-11T11:37:07.227Z,1.42
2019-04-11T11:39:43.689Z,1.67
2019-04-11T11:42:14.435Z,1.90
2019-04-11T11:45:05.896Z,1.92
2019-04-11T11:47:51.236Z,1.77
2019-04-11T11:50:23.350Z,1.80
2019-04-11T11:53:13.052Z,1.72
2019-04-11T11:55:41.620Z,1.65
2019-04-11T11:58:28.115Z,1.77
2019-04-11T12:01:01.221Z,1.32
2019-04-11T12:03:49.029Z,1.10
2019-04-11T12:06:22.384Z,1.15
2019-04-11T12:09:08.179Z,0.98
2019-04-11T12:11:38.582Z,1.12
2019-04-11T12:14:18.048Z,2.22
2019-04-11T12:16:51.917Z,1.70
2019-04-11T12:19:22.198Z,1.45
2019-04-11T12:21:53.637Z,2.62
2019-04-11T12:24:25.201Z,2.25
2019-04-11T12:27:04.560Z,4.58
2019-04-11T12:29:38.612Z,2.05
2019-04-11T12:32:18.222Z,2.58
2019-04-11T12:34:49.402Z,1.80
2019-04-11T12:37:22.641Z,2.52
2019-04-11T12:40:09.755Z,1.95
2019-04-11T12:42:40.298Z,3.90
2019-04-11T12:45:26.950Z,2.30
2019-04-11T12:47:55.797Z,2.20
2019-04-11T12:50:26.201Z,2.50
2019-04-11T12:52:56.776Z,1.98
2019-04-11T12:55:30.546Z,3.05
2019-04-11T12:58:17.007Z,5.13
2019-04-11T13:00:50.001Z,1.77
2019-04-11T13:03:36.525Z,1.85
2019-04-11T13:06:34.632Z,1.47
2019-04-11T13:09:13.105Z,1.32
2019-04-11T13:11:46.220Z,3.42
2019-04-11T13:14:16.646Z,3.02
2019-04-11T13:16:56.767Z,3.72
2019-04-11T13:19:27.291Z,2.70
2019-04-11T13:21:57.759Z,4.08
2019-04-11T13:24:44.231Z,3.12
2019-04-11T13:27:14.628Z,3.77
2019-04-11T13:29:45.105Z,2.33
2019-04-11T13:32:31.570Z,6.17
2019-04-11T13:35:10.886Z,4.00
2019-04-11T13:37:58.832Z,3.40
2019-04-11T13:40:32.182Z,1.95
2019-04-11T13:43:18.956Z,5.70
2019-04-11T13:46:05.726Z,2.83
2019-04-11T13:48:48.300Z,8.13
2019-04-11T13:51:30.754Z,5.15
2019-04-11T13:54:17.727Z,3.33
2019-04-11T13:57:04.552Z,5.35
2019-04-11T13:59:34.958Z,3.35
2019-04-11T14:02:06.775Z,3.87
2019-04-11T14:04:40.692Z,2.40
2019-04-11T14:07:11.212Z,7.08
2019-04-11T14:09:41.743Z,2.90
2019-04-11T14:12:12.870Z,2.12
2019-04-11T14:14:42.249Z,2.30
2019-04-11T14:17:18.999Z,2.17
2019-04-11T14:20:05.594Z,1.85
2019-04-11T14:22:36.267Z,3.12
2019-04-11T14:25:18.748Z,2.60
2019-04-11T14:27:49.244Z,2.65
2019-04-11T14:30:38.736Z,2.95
2019-04-11T14:33:05.895Z,2.92
2019-04-11T14:35:52.504Z,2.20
2019-04-11T14:38:25.879Z,1.92
2019-04-11T14:41:01.790Z,3.80
2019-04-11T14:43:31.534Z,1.90
2019-04-11T14:46:12.653Z,4.62
2019-04-11T14:48:46.019Z,3.60
2019-04-11T14:51:32.822Z,2.55
2019-04-11T14:54:03.323Z,2.67
2019-04-11T14:56:36.762Z,1.80
2019-04-11T14:59:24.987Z,1.45
2019-04-11T15:01:55.535Z,3.00
2019-04-11T15:04:25.997Z,2.17
2019-04-11T15:06:56.589Z,1.82
2019-04-11T15:09:39.494Z,1.35
2019-04-11T15:12:10.041Z,2.25
2019-04-11T15:14:49.485Z,2.45
2019-04-11T15:17:18.454Z,2.02
2019-04-11T15:20:05.284Z,3.72
2019-04-11T15:22:41.599Z,2.45
2019-04-11T15:25:20.779Z,2.00
2019-04-11T15:34:26.370Z,2.12
2019-04-11T15:37:08.063Z,2.50
2019-04-11T15:39:44.405Z,7.35
2019-04-11T15:46:16.954Z,2.72
2019-04-11T15:48:35.611Z,4.12
2019-04-11T15:51:26.264Z,4.03
2019-04-11T16:06:34.751Z,2.30
2019-04-11T16:09:11.930Z,3.62
2019-04-11T16:11:55.978Z,2.45
2019-04-11T16:14:25.328Z,2.30
2019-04-11T16:25:03.300Z,3.02
2019-04-11T16:36:20.472Z,3.08
2019-04-11T16:39:02.898Z,4.80
2019-04-11T16:45:10.367Z,2.85
2019-04-11T16:48:03.388Z,4.30
2019-04-11T16:50:32.405Z,4.80
2019-04-11T16:53:01.394Z,5.67
2019-04-11T16:55:30.499Z,2.67
2019-04-11T16:58:06.016Z,4.08
2019-04-11T17:00:35.466Z,4.20
2019-04-11T17:03:08.178Z,2.85
2019-04-11T17:05:40.004Z,3.95
2019-04-11T17:08:19.198Z,1.90
2019-04-11T17:10:58.670Z,4.15
2019-04-11T17:13:32.017Z,4.92
2019-04-11T17:16:00.847Z,3.30
2019-04-11T17:18:34.128Z,3.35
2019-04-11T17:21:00.838Z,2.62
2019-04-11T17:23:29.689Z,3.10
2019-04-11T17:25:58.594Z,7.03
2019-04-11T17:28:28.559Z,4.40
2019-04-11T17:30:57.538Z,2.22
2019-04-11T17:33:28.663Z,3.62
2019-04-11T17:35:57.053Z,3.72
2019-04-11T17:38:25.985Z,4.40
2019-04-11T17:40:54.967Z,3.58
2019-04-11T17:43:23.867Z,3.42
2019-04-11T17:45:52.666Z,4.65
2019-04-11T17:48:21.460Z,3.08
2019-04-11T17:50:50.383Z,3.30
2019-04-11T17:53:22.628Z,5.25
2019-04-11T17:55:52.006Z,4.42
2019-04-11T17:58:20.416Z,3.05
2019-04-11T18:00:53.781Z,2.55
2019-04-11T18:03:22.728Z,2.65
2019-04-11T18:05:51.612Z,2.35
2019-04-11T18:08:20.973Z,3.17
2019-04-11T18:10:50.387Z,2.72
2019-04-11T18:13:19.269Z,2.75
2019-04-11T18:15:48.184Z,3.27
2019-04-11T18:18:17.209Z,3.98
2019-04-11T18:20:46.323Z,2.58
2019-04-11T18:23:15.247Z,3.85
2019-04-11T18:25:44.148Z,4.80
2019-04-11T18:28:12.977Z,4.40
2019-04-11T18:30:42.820Z,4.40
2019-04-11T18:33:11.719Z,4.22
2019-04-11T18:39:09.703Z,2.98
2019-04-11T18:45:09.163Z,3.35
2019-04-11T18:47:38.081Z,4.40
2019-04-11T18:50:08.431Z,3.95
2019-04-11T18:52:37.271Z,2.72
2019-04-11T18:55:07.819Z,3.40
2019-04-11T18:57:36.790Z,2.90
2019-04-11T19:00:08.956Z,5.30
2019-04-11T19:02:37.957Z,3.90
2019-04-11T19:05:10.933Z,4.45
2019-04-11T19:07:42.835Z,2.75
2019-04-11T19:10:14.444Z,3.12
2019-04-11T19:16:09.128Z,3.33
2019-04-11T19:18:38.138Z,2.75
2019-04-11T19:24:36.016Z,3.42
2019-04-11T19:30:33.914Z,2.02
2019-04-11T19:40:09.969Z,3.05
2019-04-11T19:45:44.042Z,3.60
2019-04-11T19:51:42.459Z,4.20
2019-04-11T19:54:11.402Z,5.87
2019-04-11T19:56:44.791Z,3.33
2019-04-11T19:59:13.663Z,3.42
2019-04-11T20:01:42.630Z,3.42
2019-04-11T20:04:11.596Z,2.77
2019-04-11T20:06:40.508Z,3.60
2019-04-11T20:09:09.610Z,2.72
2019-04-11T20:11:38.463Z,2.40
2019-04-11T20:17:44.106Z,2.35
2019-04-11T20:20:07.926Z,2.60
2019-04-11T20:26:20.866Z,2.83
2019-04-11T20:32:17.925Z,3.55
2019-04-11T20:34:46.853Z,1.85
2019-04-11T20:37:16.250Z,1.90
2019-04-11T20:43:14.186Z,3.60
2019-04-11T20:45:43.943Z,2.10
2019-04-11T20:51:54.027Z,1.70
2019-04-11T20:57:51.504Z,1.90
2019-04-11T21:03:13.385Z,3.98
2019-04-11T21:05:42.280Z,3.60
2019-04-11T21:08:11.116Z,4.58
2019-04-11T21:10:39.855Z,4.42
2019-04-11T21:13:08.684Z,2.72
2019-04-11T21:19:07.467Z,3.55
2019-04-11T21:21:36.233Z,3.40
2019-04-11T21:27:46.286Z,4.50
2019-04-11T21:33:56.455Z,4.33
2019-04-11T21:36:26.945Z,3.30
2019-04-11T21:38:55.819Z,4.22
2019-04-11T21:41:24.590Z,3.50
2019-04-11T21:43:53.437Z,3.67
2019-04-11T21:46:22.114Z,4.70
2019-04-11T21:48:50.875Z,4.03
2019-04-11T21:51:19.703Z,4.92
2019-04-11T21:53:48.483Z,3.33
2019-04-11T21:59:45.966Z,5.15
2019-04-11T22:05:19.688Z,4.45
2019-04-11T22:07:48.540Z,2.92
2019-04-11T22:13:58.699Z,2.40
2019-04-11T22:20:08.598Z,7.78
2019-04-11T22:22:37.445Z,3.92
2019-04-11T22:25:09.249Z,3.62
2019-04-11T22:27:38.013Z,3.83
2019-04-11T22:30:08.705Z,3.72
2019-04-11T22:32:38.636Z,2.77
2019-04-11T22:35:07.464Z,3.58
2019-04-11T22:37:36.295Z,3.80
2019-04-11T22:40:06.921Z,3.90
2019-04-11T22:42:35.759Z,4.40
2019-04-11T22:45:05.877Z,4.35
2019-04-11T22:51:16.979Z,3.55
2019-04-11T22:53:45.972Z,5.78
2019-04-11T22:59:44.978Z,3.25
2019-04-11T23:05:19.429Z,3.12
2019-04-11T23:11:29.406Z,3.00
2019-04-11T23:13:58.163Z,5.05
2019-04-11T23:16:27.046Z,4.42
2019-04-11T23:18:55.903Z,3.87
2019-04-11T23:21:24.724Z,3.62
2019-04-11T23:23:53.524Z,5.62
2019-04-11T23:26:22.403Z,5.85
2019-04-11T23:28:51.170Z,4.05
2019-04-11T23:31:20.839Z,4.00
2019-04-11T23:40:48.866Z,3.67
2019-04-11T23:46:22.368Z,3.33
2019-04-11T23:52:19.545Z,4.67
2019-04-11T23:54:48.331Z,4.25
2019-04-11T23:57:17.141Z,3.72
2019-04-11T23:59:45.819Z,3.50
